Time;durP1;ratioP1;P1;durP2;ratioP2;P2;SDS_P1;SDS_P2;PMS_P1;PMS_P2;Temp;Humidity;BMP_temperature;BMP_pressure;BME280_temperature;BME280_humidity;BME280_pressure;Samples;Min_cycle;Max_cycle;Signal;HPM_P1;HPM_P2
2022/06/18 00:01:53;;;;;;;1.90;1.13;;;23.00;63.10;;;;;;2099742;28;20028;-92
2022/06/18 00:03:46;;;;;;;1.75;1.10;;;23.00;63.20;;;;;;2096018;28;20096;-91
2022/06/18 00:05:14;;;;;;;2.47;1.10;;;23.00;63.30;;;;;;2098981;28;20550;-92
2022/06/18 00:07:22;;;;;;;1.75;1.00;;;22.90;63.40;;;;;;2099390;28;20048;-92
2022/06/18 00:09:29;;;;;;;1.77;0.95;;;22.90;63.50;;;;;;2074033;28;20042;-91
2022/06/18 00:13:48;;;;;;;3.10;1.20;;;22.90;63.60;;;;;;2058281;28;20050;-92
2022/06/18 00:16:00;;;;;;;1.42;0.98;;;22.80;63.60;;;;;;2054005;28;20481;-93
2022/06/18 00:17:52;;;;;;;1.30;1.10;;;22.80;63.80;;;;;;2066353;28;20031;-92
2022/06/18 00:19:32;;;;;;;1.70;1.00;;;22.80;63.90;;;;;;2060145;28;20535;-93
2022/06/18 00:21:26;;;;;;;1.83;1.00;;;22.70;64.00;;;;;;2063003;28;20050;-93
2022/06/18 00:23:07;;;;;;;2.88;1.20;;;22.70;64.20;;;;;;2073558;28;20054;-93
2022/06/18 00:24:57;;;;;;;1.98;1.00;;;22.70;64.30;;;;;;2066388;28;20546;-93
2022/06/18 00:26:19;;;;;;;2.25;1.20;;;22.70;64.30;;;;;;2058172;28;20035;-92
2022/06/18 00:42:45;;;;;;;2.50;1.33;;;22.50;65.90;;;;;;2108024;27;20055;-93
2022/06/18 00:44:17;;;;;;;1.95;1.10;;;22.50;66.00;;;;;;2107643;28;20498;-93
2022/06/18 00:45:36;;;;;;;2.10;1.10;;;22.50;66.00;;;;;;2110834;28;20043;-93
2022/06/18 00:47:01;;;;;;;3.03;1.30;;;22.50;66.00;;;;;;2090794;28;20049;-93
2022/06/18 00:49:10;;;;;;;2.92;1.30;;;22.50;66.10;;;;;;2102825;27;20118;-92
2022/06/18 00:50:46;;;;;;;2.10;1.02;;;22.40;66.00;;;;;;2107871;28;20028;-93
2022/06/18 00:52:16;;;;;;;2.33;1.20;;;22.40;66.00;;;;;;2113138;28;20122;-93
2022/06/18 00:53:48;;;;;;;2.15;1.13;;;22.40;66.00;;;;;;2113966;28;20059;-92
2022/06/18 00:55:13;;;;;;;2.28;1.40;;;22.40;66.00;;;;;;2109297;28;20031;-93
2022/06/18 00:56:46;;;;;;;2.63;1.13;;;22.40;66.10;;;;;;2112045;28;20055;-93
2022/06/18 00:58:22;;;;;;;1.30;1.00;;;22.30;66.10;;;;;;2115229;28;20039;-94
2022/06/18 01:00:11;;;;;;;1.48;1.00;;;22.30;66.20;;;;;;2106584;28;20040;-92
2022/06/18 01:01:34;;;;;;;3.65;1.30;;;22.30;66.30;;;;;;2094709;28;20086;-92
2022/06/18 01:02:53;;;;;;;1.48;1.10;;;22.30;66.30;;;;;;2107792;28;20051;-92
2022/06/18 01:04:34;;;;;;;1.40;1.00;;;22.30;66.50;;;;;;2108994;28;20037;-92
2022/06/18 01:05:55;;;;;;;1.25;1.00;;;22.30;66.60;;;;;;2114764;28;20063;-92
2022/06/18 01:07:32;;;;;;;2.17;1.10;;;22.20;66.60;;;;;;2108267;28;20059;-93
2022/06/18 01:09:06;;;;;;;1.92;0.90;;;22.20;66.70;;;;;;2112552;28;20043;-92
2022/06/18 01:10:31;;;;;;;1.88;1.00;;;22.10;66.80;;;;;;2113718;28;20040;-92
2022/06/18 01:11:50;;;;;;;2.80;1.48;;;22.20;67.00;;;;;;2118687;27;20031;-90
2022/06/18 01:13:32;;;;;;;2.95;1.23;;;22.10;67.20;;;;;;2102000;28;20486;-92
2022/06/18 01:15:21;;;;;;;2.53;1.10;;;22.10;67.10;;;;;;2107535;28;20040;-92
2022/06/18 01:16:54;;;;;;;2.08;1.30;;;22.10;67.00;;;;;;2115937;28;20039;-92
2022/06/18 01:18:35;;;;;;;1.63;1.05;;;22.10;67.10;;;;;;2128620;27;20039;-92
2022/06/18 01:20:04;;;;;;;1.63;1.13;;;22.10;67.10;;;;;;2110104;28;20440;-91
2022/06/18 01:22:12;;;;;;;2.20;1.23;;;22.10;67.20;;;;;;2113014;28;20528;-92
2022/06/18 01:24:22;;;;;;;2.30;1.33;;;22.10;67.20;;;;;;2118314;28;20509;-92
2022/06/18 01:25:54;;;;;;;2.55;1.33;;;22.00;67.20;;;;;;2110739;28;20032;-93
2022/06/18 01:27:24;;;;;;;1.95;1.30;;;22.00;67.30;;;;;;2102480;28;20044;-92
2022/06/18 01:28:47;;;;;;;2.50;1.10;;;22.00;67.40;;;;;;2115207;27;20114;-92
2022/06/18 01:30:32;;;;;;;4.15;1.33;;;21.90;67.50;;;;;;2123204;27;20035;-92
2022/06/18 01:32:14;;;;;;;2.55;1.00;;;21.90;67.60;;;;;;2127592;27;20484;-92
2022/06/18 01:34:20;;;;;;;2.53;1.17;;;21.90;67.60;;;;;;2114759;28;20040;-93
2022/06/18 01:38:31;;;;;;;2.20;1.25;;;21.90;67.60;;;;;;2128883;27;20030;-92
2022/06/18 01:40:45;;;;;;;2.80;1.23;;;21.90;67.60;;;;;;2118860;27;20031;-92
2022/06/18 01:42:51;;;;;;;2.00;1.10;;;21.90;67.70;;;;;;2123947;27;20043;-92
2022/06/18 01:44:36;;;;;;;1.80;1.10;;;21.90;67.80;;;;;;2115696;28;20044;-93
2022/06/18 01:47:03;;;;;;;2.47;1.10;;;21.90;67.80;;;;;;2107377;28;20028;-92
2022/06/18 01:48:48;;;;;;;1.92;1.15;;;21.90;67.80;;;;;;2107513;28;20044;-93
2022/06/18 01:51:14;;;;;;;2.67;1.00;;;21.80;67.80;;;;;;2102716;28;20035;-92
2022/06/18 01:52:57;;;;;;;1.83;1.20;;;21.80;67.80;;;;;;2107312;28;20040;-93
2022/06/18 01:54:56;;;;;;;1.63;1.20;;;21.80;67.90;;;;;;2116142;28;20489;-93
2022/06/18 01:56:43;;;;;;;1.98;1.10;;;21.80;68.00;;;;;;2107049;28;20044;-92
2022/06/18 01:58:32;;;;;;;2.95;1.20;;;21.80;68.10;;;;;;2115741;28;20043;-93
2022/06/18 02:02:51;;;;;;;1.80;1.08;;;21.70;68.60;;;;;;2116305;27;20053;-93
2022/06/18 02:04:33;;;;;;;2.88;1.23;;;21.70;68.70;;;;;;2114848;28;20074;-92
2022/06/18 02:06:00;;;;;;;2.25;1.40;;;21.70;68.70;;;;;;2124066;27;20039;-92
2022/06/18 02:07:26;;;;;;;1.67;1.30;;;21.70;68.80;;;;;;2119925;27;20039;-92
2022/06/18 02:08:47;;;;;;;1.73;1.25;;;21.70;68.90;;;;;;2105531;28;20028;-92
2022/06/18 02:10:32;;;;;;;2.20;1.40;;;21.70;69.00;;;;;;2095036;28;20418;-92
2022/06/18 02:12:00;;;;;;;1.95;1.52;;;21.60;69.00;;;;;;2098384;28;20450;-92
2022/06/18 02:14:00;;;;;;;1.70;1.20;;;21.60;69.10;;;;;;2123342;27;20465;-92
2022/06/18 02:15:43;;;;;;;2.60;1.52;;;21.60;69.20;;;;;;2112275;28;20536;-92
2022/06/18 02:17:37;;;;;;;3.30;1.48;;;21.50;69.20;;;;;;2121833;27;20309;-92
2022/06/18 02:19:20;;;;;;;2.17;1.40;;;21.50;69.30;;;;;;2123708;27;20038;-93
2022/06/18 02:21:16;;;;;;;2.47;1.40;;;21.50;69.40;;;;;;2108461;28;20036;-92
2022/06/18 02:22:56;;;;;;;2.38;1.45;;;21.50;69.40;;;;;;2114267;28;20088;-92
2022/06/18 02:24:19;;;;;;;1.42;1.15;;;21.50;69.50;;;;;;2106735;28;20032;-92
2022/06/18 02:25:59;;;;;;;2.45;1.27;;;21.50;69.60;;;;;;2110203;28;20055;-92
2022/06/18 02:27:20;;;;;;;4.32;1.50;;;21.50;69.70;;;;;;2104541;28;20044;-92
2022/06/18 02:28:53;;;;;;;3.20;1.48;;;21.40;69.70;;;;;;2104502;28;20457;-92
2022/06/18 02:30:26;;;;;;;1.73;1.27;;;21.40;70.30;;;;;;2113653;28;20019;-92
2022/06/18 02:32:18;;;;;;;2.53;1.48;;;21.40;70.00;;;;;;2105922;28;20036;-92
2022/06/18 02:34:07;;;;;;;2.40;1.48;;;21.40;70.00;;;;;;2111572;28;20035;-93
2022/06/18 02:35:34;;;;;;;2.50;1.42;;;21.40;70.00;;;;;;2125267;27;20046;-92
2022/06/18 02:36:57;;;;;;;2.50;1.58;;;21.40;70.10;;;;;;2115397;28;20063;-91
2022/06/18 02:38:22;;;;;;;2.33;1.60;;;21.30;70.10;;;;;;2098957;28;20032;-92
2022/06/18 02:40:18;;;;;;;2.50;1.63;;;21.30;70.20;;;;;;2111348;28;20423;-92
2022/06/18 02:41:51;;;;;;;2.83;1.60;;;21.30;70.30;;;;;;2099079;28;20044;-92
2022/06/18 02:43:19;;;;;;;3.45;1.63;;;21.30;70.30;;;;;;2118902;27;20459;-92
2022/06/18 02:44:48;;;;;;;2.38;1.60;;;21.30;70.40;;;;;;2114912;28;20118;-92
2022/06/18 02:46:31;;;;;;;2.20;1.42;;;21.30;70.40;;;;;;2125668;27;20023;-92
2022/06/18 02:47:54;;;;;;;2.55;1.65;;;21.30;70.40;;;;;;2115010;28;20043;-93
2022/06/18 02:49:15;;;;;;;2.90;1.50;;;21.30;70.40;;;;;;2107985;28;20471;-92
2022/06/18 02:50:41;;;;;;;2.08;1.42;;;21.30;70.50;;;;;;2102129;28;20119;-92
2022/06/18 02:54:05;;;;;;;2.60;1.70;;;21.30;70.80;;;;;;2125691;27;20031;-91
2022/06/18 02:55:53;;;;;;;3.25;1.50;;;21.30;70.90;;;;;;2111645;28;20060;-91
2022/06/18 02:57:26;;;;;;;3.60;1.80;;;21.20;71.00;;;;;;2119169;28;20042;-92
2022/06/18 02:58:48;;;;;;;2.17;1.52;;;21.20;71.10;;;;;;2123484;28;20508;-93
2022/06/18 03:00:22;;;;;;;2.40;1.40;;;21.20;71.10;;;;;;2111721;28;20523;-92
2022/06/18 03:01:50;;;;;;;3.00;1.60;;;21.20;71.20;;;;;;2108935;28;20048;-92
2022/06/18 03:03:18;;;;;;;2.42;1.70;;;21.20;71.30;;;;;;2098065;28;20040;-93
2022/06/18 03:04:40;;;;;;;3.58;1.70;;;21.10;71.40;;;;;;2111065;28;20040;-92
2022/06/18 03:06:07;;;;;;;2.92;1.77;;;21.10;71.40;;;;;;2103556;28;20040;-93
2022/06/18 03:07:27;;;;;;;2.80;1.77;;;21.10;71.50;;;;;;2101732;28;20056;-93
2022/06/18 03:08:48;;;;;;;2.47;1.60;;;21.10;71.60;;;;;;2102975;28;20123;-93
2022/06/18 03:13:24;;;;;;;3.15;1.90;;;21.10;71.80;;;;;;2106583;28;20065;-93
2022/06/18 03:14:44;;;;;;;2.58;1.73;;;21.10;71.90;;;;;;2097700;28;20037;-93
2022/06/18 03:16:05;;;;;;;3.67;1.90;;;21.00;72.00;;;;;;2086354;28;20041;-93
2022/06/18 03:17:25;;;;;;;4.03;1.77;;;21.00;72.10;;;;;;2110174;28;20031;-93
2022/06/18 03:18:45;;;;;;;4.38;1.65;;;21.00;72.80;;;;;;2102976;28;20036;-93
2022/06/18 03:20:13;;;;;;;3.05;1.70;;;21.00;72.20;;;;;;2102425;28;20049;-92
2022/06/18 03:21:46;;;;;;;3.63;1.70;;;21.00;72.20;;;;;;2110673;28;20035;-93
2022/06/18 03:23:05;;;;;;;2.80;1.60;;;21.00;72.20;;;;;;2113457;28;20048;-92
2022/06/18 03:24:25;;;;;;;2.83;1.67;;;21.00;72.30;;;;;;2095011;28;20037;-93
2022/06/18 03:25:44;;;;;;;2.72;1.70;;;21.00;72.30;;;;;;2095044;28;20498;-93
2022/06/18 03:27:03;;;;;;;3.95;1.90;;;21.00;73.10;;;;;;2095933;28;20094;-93
2022/06/18 03:28:25;;;;;;;2.75;1.80;;;21.00;72.60;;;;;;2102024;28;20032;-93
2022/06/18 03:29:46;;;;;;;2.85;1.90;;;21.00;72.80;;;;;;2089675;28;20489;-93
2022/06/18 03:31:05;;;;;;;;;;;21.00;72.80;;;;;;2106582;28;20040;-93
2022/06/18 03:32:24;;;;;;;3.42;1.80;;;20.90;72.70;;;;;;2104827;28;19908;-92
2022/06/18 03:33:46;;;;;;;2.80;2.03;;;20.90;72.70;;;;;;2089492;28;20048;-92
2022/06/18 03:35:06;;;;;;;2.70;1.95;;;20.90;72.80;;;;;;2091407;28;20032;-93
2022/06/18 03:36:26;;;;;;;3.97;2.10;;;20.90;72.80;;;;;;2102421;28;20056;-92
2022/06/18 03:37:45;;;;;;;3.03;2.17;;;20.90;72.80;;;;;;2106951;28;20040;-93
2022/06/18 03:39:06;;;;;;;2.60;1.90;;;20.90;72.80;;;;;;2094558;28;20290;-92
2022/06/18 03:40:26;;;;;;;2.95;2.08;;;21.00;73.00;;;;;;2106701;28;20028;-93
2022/06/18 03:41:45;;;;;;;3.40;2.05;;;21.00;73.00;;;;;;2096547;28;20510;-93
2022/06/18 03:43:04;;;;;;;4.53;2.10;;;21.00;72.80;;;;;;2093205;28;20072;-93
2022/06/18 03:44:25;;;;;;;3.10;2.08;;;21.00;73.10;;;;;;2094657;28;20111;-92
2022/06/18 03:45:47;;;;;;;3.80;2.20;;;21.00;73.10;;;;;;2096878;28;20120;-93
2022/06/18 03:47:07;;;;;;;3.47;2.13;;;21.00;73.20;;;;;;2102201;28;20068;-93
2022/06/18 03:48:38;;;;;;;;;;;21.00;73.20;;;;;;2112302;28;20068;-93
2022/06/18 03:49:58;;;;;;;3.80;2.10;;;21.00;73.10;;;;;;2115538;27;19915;-93
2022/06/18 03:51:23;;;;;;;5.07;1.90;;;21.00;73.20;;;;;;2119227;27;20107;-92
2022/06/18 03:52:46;;;;;;;3.50;2.08;;;21.00;73.30;;;;;;2107535;28;20119;-92
2022/06/18 03:54:33;;;;;;;3.30;1.90;;;21.00;73.30;;;;;;2109096;28;20043;-92
2022/06/18 03:56:03;;;;;;;5.10;2.40;;;21.00;73.30;;;;;;2099367;28;20060;-93
2022/06/18 03:57:31;;;;;;;3.38;2.10;;;21.00;73.50;;;;;;2096642;28;20425;-92
2022/06/18 03:59:41;;;;;;;3.53;2.30;;;21.00;73.50;;;;;;2119851;27;20031;-92
2022/06/18 04:01:10;;;;;;;3.33;2.10;;;21.00;73.50;;;;;;2114356;28;20043;-93
2022/06/18 04:03:41;;;;;;;3.55;2.35;;;21.00;73.50;;;;;;2100954;28;20045;-92
2022/06/18 04:05:13;;;;;;;3.60;2.50;;;21.00;73.70;;;;;;2111968;28;20028;-93
2022/06/18 04:06:36;;;;;;;4.47;2.20;;;21.00;73.70;;;;;;2098360;28;20037;-92
2022/06/18 04:08:30;;;;;;;2.40;1.80;;;21.00;73.70;;;;;;2098986;28;20053;-93
2022/06/18 04:10:01;;;;;;;3.35;2.30;;;21.00;73.70;;;;;;2114074;27;20028;-92
2022/06/18 04:11:33;;;;;;;3.75;2.20;;;21.00;73.70;;;;;;2117280;27;20040;-92
2022/06/18 04:13:14;;;;;;;3.95;2.45;;;21.00;73.70;;;;;;2116661;28;20035;-91
2022/06/18 04:14:55;;;;;;;4.57;2.03;;;21.00;73.70;;;;;;2126057;27;20493;-93
2022/06/18 04:16:17;;;;;;;6.38;2.50;;;21.00;73.70;;;;;;2110912;28;20056;-92
2022/06/18 04:17:47;;;;;;;3.42;2.20;;;21.00;73.70;;;;;;2096038;28;20025;-93
2022/06/18 04:19:14;;;;;;;3.95;2.45;;;21.10;73.80;;;;;;2096815;28;20446;-92
2022/06/18 04:20:39;;;;;;;4.47;2.47;;;21.10;73.80;;;;;;2107297;28;20463;-92
2022/06/18 04:22:47;;;;;;;3.95;2.30;;;21.10;73.80;;;;;;2117606;28;20035;-93
2022/06/18 04:24:08;;;;;;;3.25;2.15;;;21.10;73.70;;;;;;2114495;28;20032;-93
2022/06/18 04:25:31;;;;;;;3.72;2.38;;;21.10;73.70;;;;;;2096670;28;20037;-93
2022/06/18 04:27:19;;;;;;;3.53;2.05;;;21.10;73.80;;;;;;2110565;28;20035;-93
2022/06/18 04:29:22;;;;;;;3.80;2.08;;;21.20;73.90;;;;;;2104526;28;20108;-92
2022/06/18 04:31:31;;;;;;;3.63;2.20;;;21.20;73.80;;;;;;2115909;27;20481;-92
2022/06/18 04:33:18;;;;;;;4.28;2.22;;;21.20;73.80;;;;;;2116703;28;20492;-92
2022/06/18 04:36:00;;;;;;;5.20;2.33;;;21.20;73.70;;;;;;2114816;27;20483;-93
2022/06/18 04:39:48;;;;;;;5.75;2.45;;;21.20;73.50;;;;;;2119459;27;20047;-93
2022/06/18 04:41:14;;;;;;;4.75;2.65;;;21.30;73.60;;;;;;2115012;27;20039;-92
2022/06/18 04:42:47;;;;;;;5.10;2.78;;;21.30;73.60;;;;;;2100387;28;20045;-93
2022/06/18 04:44:39;;;;;;;3.55;2.40;;;21.30;73.50;;;;;;2115177;28;20142;-93
2022/06/18 04:46:14;;;;;;;4.35;2.40;;;21.30;73.50;;;;;;2110959;28;20040;-92
2022/06/18 04:47:37;;;;;;;3.50;2.40;;;21.40;73.50;;;;;;2114551;28;20048;-92
2022/06/18 04:49:22;;;;;;;4.85;2.60;;;21.40;73.60;;;;;;2115964;28;20493;-92
2022/06/18 04:51:09;;;;;;;4.22;2.83;;;21.40;73.60;;;;;;2120168;27;20031;-91
2022/06/18 04:52:36;;;;;;;4.18;2.47;;;21.50;73.60;;;;;;2119082;27;20035;-92
2022/06/18 04:54:06;;;;;;;3.97;2.10;;;21.50;73.50;;;;;;2088650;28;20044;-93
2022/06/18 04:56:06;;;;;;;3.35;2.30;;;21.50;73.60;;;;;;2107189;28;20036;-94
2022/06/18 04:57:47;;;;;;;4.20;2.25;;;21.60;73.40;;;;;;2116252;28;20078;-92
2022/06/18 05:22:40;;;;;;;3.67;2.33;;;22.40;72.00;;;;;;2110334;28;20052;-92
2022/06/18 05:24:30;;;;;;;5.05;2.45;;;22.50;72.10;;;;;;2104560;28;20529;-92
2022/06/18 05:26:15;;;;;;;3.30;2.17;;;22.50;72.10;;;;;;2098859;28;20029;-92
2022/06/18 05:28:03;;;;;;;5.05;2.55;;;22.50;72.00;;;;;;2098678;28;20127;-92
2022/06/18 05:30:08;;;;;;;4.40;2.50;;;22.60;72.10;;;;;;2097545;28;20048;-92
2022/06/18 05:32:01;;;;;;;3.83;2.60;;;22.60;72.00;;;;;;2106632;28;20028;-92
2022/06/18 05:34:03;;;;;;;4.15;2.63;;;22.70;72.00;;;;;;2104214;28;20091;-92
2022/06/18 05:35:52;;;;;;;3.20;2.25;;;22.70;72.00;;;;;;2110705;27;20051;-91
2022/06/18 05:37:21;;;;;;;5.78;2.58;;;22.70;72.00;;;;;;2106176;28;20452;-92
2022/06/18 05:38:40;;;;;;;4.07;2.63;;;22.80;72.00;;;;;;2105605;28;20082;-92
2022/06/18 05:39:59;;;;;;;3.92;2.53;;;22.80;72.00;;;;;;2095963;28;20045;-92
2022/06/18 05:41:19;;;;;;;5.40;2.58;;;22.90;72.00;;;;;;2095903;28;20426;-91
2022/06/18 05:42:38;;;;;;;3.88;2.70;;;22.90;72.00;;;;;;2090528;28;20049;-91
2022/06/18 05:43:58;;;;;;;4.63;2.88;;;22.90;72.00;;;;;;2091502;28;20036;-92
2022/06/18 05:45:17;;;;;;;5.43;3.00;;;23.00;72.00;;;;;;2090448;28;20028;-91
2022/06/18 05:46:36;;;;;;;5.00;2.85;;;23.00;71.90;;;;;;2091810;28;20589;-94
2022/06/18 05:47:55;;;;;;;5.25;3.00;;;23.00;71.90;;;;;;2087886;28;20045;-91
2022/06/18 05:49:15;;;;;;;4.43;2.75;;;23.10;71.90;;;;;;2087012;28;20045;-91
2022/06/18 05:50:34;;;;;;;4.10;2.60;;;23.10;71.90;;;;;;2091012;28;20040;-91
2022/06/18 05:51:53;;;;;;;5.72;3.10;;;23.10;71.80;;;;;;2095505;28;20503;-92
2022/06/18 05:53:13;;;;;;;4.50;2.90;;;23.20;71.90;;;;;;2095540;28;20036;-90
2022/06/18 05:54:51;;;;;;;4.70;2.92;;;23.30;71.90;;;;;;2088437;28;20045;-90
2022/06/18 05:56:11;;;;;;;4.57;2.90;;;23.30;71.80;;;;;;2086569;28;20037;-91
2022/06/18 05:57:46;;;;;;;5.07;2.90;;;23.30;71.70;;;;;;2094306;28;20501;-89
2022/06/18 05:59:46;;;;;;;4.97;2.90;;;23.30;71.60;;;;;;2100961;28;20041;-90
2022/06/18 06:03:53;;;;;;;4.97;2.80;;;23.50;71.40;;;;;;2051974;28;20510;-92
2022/06/18 06:05:15;;;;;;;4.05;2.72;;;23.50;71.40;;;;;;2065389;28;20113;-92
2022/06/18 06:06:36;;;;;;;4.43;2.78;;;23.50;71.30;;;;;;2109488;28;20044;-90
2022/06/18 06:07:55;;;;;;;5.50;2.95;;;23.50;71.30;;;;;;2098662;28;20143;-91
2022/06/18 06:11:28;;;;;;;4.20;2.70;;;23.60;71.30;;;;;;2087084;28;20037;-91
2022/06/18 06:12:37;;;;;;;7.28;2.85;;;23.70;71.10;;;;;;2099520;28;20499;-91
2022/06/18 06:13:59;;;;;;;4.70;3.00;;;23.70;71.00;;;;;;2116605;28;20055;-90
2022/06/18 06:15:20;;;;;;;4.20;2.72;;;23.70;70.90;;;;;;2096691;28;20040;-90
2022/06/18 06:16:42;;;;;;;5.90;2.63;;;23.80;70.80;;;;;;2089250;28;20561;-89
2022/06/18 06:18:01;;;;;;;4.45;2.65;;;23.80;70.80;;;;;;2082259;28;20045;-90
2022/06/18 06:19:25;;;;;;;3.13;2.17;;;23.90;70.70;;;;;;2091476;28;20029;-90
2022/06/18 06:20:56;;;;;;;4.63;2.45;;;23.90;70.60;;;;;;2093147;28;20275;-91
2022/06/18 06:22:17;;;;;;;4.65;2.60;;;23.90;70.50;;;;;;2102967;28;20488;-91
2022/06/18 06:23:36;;;;;;;4.30;2.35;;;23.90;70.40;;;;;;2088566;28;20053;-91
2022/06/18 06:25:10;;;;;;;3.63;2.13;;;24.00;70.40;;;;;;2092759;28;20075;-91
2022/06/18 06:26:35;;;;;;;3.42;2.10;;;24.00;70.30;;;;;;2099201;28;20475;-90
2022/06/18 06:27:55;;;;;;;4.07;2.30;;;24.10;70.30;;;;;;2106429;28;20482;-91
2022/06/18 06:29:15;;;;;;;5.35;2.33;;;24.10;70.30;;;;;;2098966;28;20048;-90
2022/06/18 06:30:38;;;;;;;4.80;2.57;;;24.10;70.20;;;;;;2087172;28;20045;-92
2022/06/18 06:31:57;;;;;;;3.60;2.30;;;24.10;70.10;;;;;;2094501;28;20772;-91
2022/06/18 06:33:18;;;;;;;4.50;2.28;;;24.20;70.20;;;;;;2094760;28;20632;-91
2022/06/18 06:34:41;;;;;;;4.30;2.17;;;24.20;70.10;;;;;;2094064;28;20086;-91
2022/06/18 06:36:03;;;;;;;4.03;2.35;;;24.30;70.00;;;;;;2093880;28;20061;-91
2022/06/18 06:37:26;;;;;;;4.22;2.30;;;24.30;70.00;;;;;;2087556;28;20069;-90
2022/06/18 06:38:58;;;;;;;5.22;2.40;;;24.40;69.90;;;;;;2095867;28;20040;-91
2022/06/18 06:40:22;;;;;;;4.25;2.33;;;24.40;69.90;;;;;;2087561;28;20499;-91
2022/06/18 06:41:55;;;;;;;5.22;2.50;;;24.40;69.60;;;;;;2087214;28;20037;-91
2022/06/18 06:43:26;;;;;;;;;;;24.50;69.50;;;;;;2106796;28;20040;-92
2022/06/18 06:44:46;;;;;;;5.10;2.30;;;24.50;69.40;;;;;;2097552;28;19960;-90
2022/06/18 06:46:43;;;;;;;3.85;2.10;;;24.60;69.40;;;;;;2086903;28;20040;-91
2022/06/18 06:48:06;;;;;;;3.80;2.17;;;24.60;69.40;;;;;;2089905;28;20029;-90
2022/06/18 06:49:50;;;;;;;4.45;2.22;;;24.60;69.30;;;;;;2095597;28;20049;-90
2022/06/18 06:51:16;;;;;;;3.88;1.98;;;24.70;69.20;;;;;;2095819;28;20076;-91
2022/06/18 06:52:42;;;;;;;4.00;2.03;;;24.70;69.70;;;;;;2094867;28;20021;-90
2022/06/18 06:54:02;;;;;;;4.68;2.60;;;24.80;69.10;;;;;;2106450;28;20044;-90
2022/06/18 06:57:22;;;;;;;4.88;2.38;;;24.90;68.80;;;;;;2106313;28;20273;-90
2022/06/18 06:58:48;;;;;;;5.10;2.50;;;24.90;68.60;;;;;;2089681;28;20045;-91
2022/06/18 07:00:17;;;;;;;4.57;1.98;;;24.90;68.50;;;;;;2101370;28;20044;-90
2022/06/18 07:01:45;;;;;;;2.83;1.92;;;25.00;68.50;;;;;;2098523;28;20036;-91
2022/06/18 07:03:06;;;;;;;5.32;2.50;;;25.00;68.40;;;;;;2104227;28;20067;-91
2022/06/18 07:04:27;;;;;;;5.28;2.38;;;25.00;68.30;;;;;;2083467;28;20041;-91
2022/06/18 07:05:47;;;;;;;4.90;2.25;;;25.10;68.30;;;;;;2086143;28;20065;-89
2022/06/18 07:07:11;;;;;;;5.00;2.35;;;25.10;68.20;;;;;;2080752;28;20049;-90
2022/06/18 07:08:32;;;;;;;5.35;2.95;;;25.10;68.10;;;;;;2101619;28;20039;-91
2022/06/18 07:09:52;;;;;;;4.03;2.30;;;25.20;68.20;;;;;;2090527;28;20041;-91
2022/06/18 07:11:13;;;;;;;;;;;25.20;68.20;;;;;;2083838;28;20045;-90
2022/06/18 07:12:35;;;;;;;4.35;2.10;;;25.20;68.10;;;;;;2102530;28;19912;-91
2022/06/18 07:13:54;;;;;;;3.97;2.30;;;25.30;68.20;;;;;;2085292;28;20577;-92
2022/06/18 07:15:14;;;;;;;5.03;2.38;;;25.30;68.10;;;;;;2088534;28;20037;-91
2022/06/18 07:16:33;;;;;;;5.32;2.40;;;25.30;68.00;;;;;;2096816;28;20032;-92
2022/06/18 07:17:52;;;;;;;4.43;2.50;;;25.40;68.00;;;;;;2099884;28;20037;-91
2022/06/18 07:19:12;;;;;;;4.70;2.50;;;25.50;68.00;;;;;;2077388;28;20034;-91
2022/06/18 07:20:31;;;;;;;3.47;2.22;;;25.50;67.90;;;;;;2080724;28;20049;-92
2022/06/18 07:21:51;;;;;;;3.95;2.30;;;25.50;67.80;;;;;;2088020;28;20033;-92
2022/06/18 07:23:11;;;;;;;5.50;2.30;;;25.50;67.70;;;;;;2093508;28;20044;-91
2022/06/18 07:24:31;;;;;;;3.78;1.90;;;25.60;67.80;;;;;;2102017;28;20066;-92
2022/06/18 07:25:51;;;;;;;4.53;2.40;;;25.70;67.70;;;;;;2099040;28;20044;-91
2022/06/18 07:27:10;;;;;;;4.15;2.38;;;25.70;67.60;;;;;;2084982;28;20503;-91
2022/06/18 07:28:29;;;;;;;4.43;2.30;;;25.70;67.50;;;;;;2093820;28;20041;-90
2022/06/18 07:29:48;;;;;;;3.80;2.00;;;25.80;67.40;;;;;;2095461;28;20036;-90
2022/06/18 07:31:10;;;;;;;5.20;2.10;;;25.80;67.30;;;;;;2095083;28;20146;-90
2022/06/18 07:32:29;;;;;;;4.88;2.30;;;25.80;67.20;;;;;;2103175;28;20027;-91
2022/06/18 07:33:49;;;;;;;4.40;2.30;;;25.90;67.20;;;;;;2088227;28;20418;-91
2022/06/18 07:35:15;;;;;;;5.50;2.28;;;25.90;67.00;;;;;;2090047;28;20045;-92
2022/06/18 07:36:35;;;;;;;3.08;1.75;;;25.90;67.00;;;;;;2102979;28;20036;-91
2022/06/18 07:37:56;;;;;;;3.53;1.90;;;25.90;66.90;;;;;;2099363;28;20045;-93
2022/06/18 07:39:16;;;;;;;4.80;2.25;;;25.90;66.90;;;;;;2099060;28;20028;-92
2022/06/18 07:40:43;;;;;;;6.18;2.17;;;26.00;66.80;;;;;;2101394;28;20036;-92
2022/06/18 07:42:04;;;;;;;4.18;2.10;;;26.00;66.80;;;;;;2108043;28;20032;-90
2022/06/18 07:43:40;;;;;;;4.43;2.10;;;26.00;66.70;;;;;;2104547;28;20036;-91
2022/06/18 07:44:59;;;;;;;5.05;2.33;;;26.00;66.60;;;;;;2104627;28;20040;-91
2022/06/18 07:46:19;;;;;;;4.65;2.20;;;26.10;66.60;;;;;;2088329;28;20040;-91
2022/06/18 07:47:38;;;;;;;5.75;2.25;;;26.10;66.50;;;;;;2093962;28;20049;-91
2022/06/18 07:48:57;;;;;;;4.88;2.08;;;26.10;66.40;;;;;;2098307;28;20052;-91
2022/06/18 07:50:19;;;;;;;4.72;2.22;;;26.20;66.30;;;;;;2097608;28;20053;-90
2022/06/18 07:51:39;;;;;;;5.72;2.22;;;26.20;66.20;;;;;;2095778;28;20036;-90
2022/06/18 07:52:58;;;;;;;4.93;2.23;;;26.20;66.10;;;;;;2092789;28;20052;-90
2022/06/18 07:54:18;;;;;;;4.70;2.10;;;26.20;66.10;;;;;;2088104;28;20064;-90
2022/06/18 07:55:37;;;;;;;4.65;1.88;;;26.20;66.00;;;;;;2093131;28;20044;-91
2022/06/18 07:56:57;;;;;;;5.97;2.22;;;26.20;66.00;;;;;;2101546;28;20119;-90
2022/06/18 07:58:16;;;;;;;4.70;2.28;;;26.20;66.00;;;;;;2093117;28;20442;-90
2022/06/18 07:59:38;;;;;;;3.53;1.98;;;26.30;66.00;;;;;;2099707;28;20044;-90
2022/06/18 08:00:58;;;;;;;3.85;1.92;;;26.30;65.90;;;;;;2092459;28;20044;-90
2022/06/18 08:02:18;;;;;;;3.55;1.90;;;26.40;65.90;;;;;;2093555;28;20048;-90
2022/06/18 08:03:38;;;;;;;5.00;1.95;;;26.40;65.80;;;;;;2080014;28;20041;-91
2022/06/18 08:04:58;;;;;;;;;;;26.40;65.80;;;;;;2084212;28;20037;-91
2022/06/18 08:06:17;;;;;;;4.53;2.20;;;26.50;65.80;;;;;;2094231;28;19912;-91
2022/06/18 08:07:37;;;;;;;6.55;2.60;;;26.50;65.70;;;;;;2087717;28;20100;-92
2022/06/18 08:08:56;;;;;;;3.97;2.00;;;26.60;65.60;;;;;;2093329;28;20522;-92
2022/06/18 08:10:16;;;;;;;4.68;2.10;;;26.60;65.50;;;;;;2087978;28;20033;-92
2022/06/18 08:11:37;;;;;;;4.63;2.10;;;26.70;65.50;;;;;;2089124;28;20044;-91
2022/06/18 08:12:57;;;;;;;4.88;2.35;;;26.70;65.40;;;;;;2110740;27;20494;-91
2022/06/18 08:14:17;;;;;;;3.38;2.05;;;26.70;65.40;;;;;;2094167;28;20037;-92
2022/06/18 08:15:36;;;;;;;3.67;1.80;;;26.70;65.50;;;;;;2090712;28;20111;-92
2022/06/18 08:16:55;;;;;;;4.82;2.15;;;26.80;65.50;;;;;;2082285;28;20077;-92
2022/06/18 08:18:14;;;;;;;4.32;2.00;;;26.90;65.50;;;;;;2088982;28;20032;-91
2022/06/18 08:19:34;;;;;;;3.75;1.92;;;26.90;65.20;;;;;;2077252;28;20073;-92
2022/06/18 08:20:53;;;;;;;2.90;1.70;;;26.90;65.00;;;;;;2087685;28;20040;-91
2022/06/18 08:22:13;;;;;;;5.40;2.20;;;27.00;65.00;;;;;;2092993;28;20067;-91
2022/06/18 08:23:36;;;;;;;4.40;1.95;;;27.10;64.90;;;;;;2087756;28;20065;-92
2022/06/18 08:24:57;;;;;;;3.47;1.90;;;27.10;64.90;;;;;;2095395;28;20142;-91
2022/06/18 08:26:16;;;;;;;4.68;2.05;;;27.10;64.70;;;;;;2096319;28;20060;-92
2022/06/18 08:27:35;;;;;;;4.07;2.10;;;27.20;64.70;;;;;;2087771;28;20041;-92
2022/06/18 08:28:55;;;;;;;3.45;1.70;;;27.20;64.70;;;;;;2091071;28;20053;-91
2022/06/18 08:30:16;;;;;;;4.80;2.10;;;27.20;64.70;;;;;;2081229;28;20045;-92
2022/06/18 08:31:36;;;;;;;3.92;2.03;;;27.30;64.70;;;;;;2079596;28;20045;-93
2022/06/18 08:32:55;;;;;;;4.93;2.00;;;27.30;64.60;;;;;;2107322;27;20048;-91
2022/06/18 08:34:14;;;;;;;4.38;2.05;;;27.30;64.50;;;;;;2085671;28;20272;-91
2022/06/18 08:35:36;;;;;;;5.15;1.85;;;27.40;64.60;;;;;;2083584;28;20037;-92
2022/06/18 08:36:56;;;;;;;3.17;1.75;;;27.40;64.50;;;;;;2104777;28;20032;-92
2022/06/18 08:38:15;;;;;;;5.65;2.22;;;27.40;64.40;;;;;;2099491;28;20028;-93
2022/06/18 08:39:36;;;;;;;4.75;1.98;;;27.50;64.40;;;;;;2081309;28;20133;-92
2022/06/18 08:41:23;;;;;;;4.75;2.30;;;27.50;64.30;;;;;;2093443;28;20032;-92
2022/06/18 08:42:57;;;;;;;3.45;1.88;;;27.60;64.20;;;;;;2099182;28;20037;-92
2022/06/18 08:44:53;;;;;;;3.75;1.98;;;27.60;64.10;;;;;;2104565;28;20048;-92
2022/06/18 08:46:30;;;;;;;2.83;1.80;;;27.70;64.10;;;;;;2098801;28;20041;-92
2022/06/18 08:48:25;;;;;;;4.57;1.90;;;27.80;64.10;;;;;;2106307;28;20036;-91
2022/06/18 08:49:50;;;;;;;4.38;1.77;;;27.80;63.90;;;;;;2104425;28;20518;-92
2022/06/18 08:51:21;;;;;;;4.88;2.10;;;27.90;63.90;;;;;;2105199;28;20028;-91
2022/06/18 08:53:07;;;;;;;4.97;1.70;;;28.00;63.70;;;;;;2105011;28;20032;-91
2022/06/18 08:54:56;;;;;;;5.07;2.25;;;28.10;63.50;;;;;;2107536;28;20032;-91
2022/06/18 08:56:32;;;;;;;3.20;1.75;;;28.10;63.10;;;;;;2074230;28;20041;-90